Time;durP1;ratioP1;P1;durP2;ratioP2;P2;SDS_P1;SDS_P2;PMS_P1;PMS_P2;Temp;Humidity;BMP_temperature;BMP_pressure;BME280_temperature;BME280_humidity;BME280_pressure;Samples;Min_cycle;Max_cycle;Signal;HPM_P1;HPM_P2
2023/09/07 00:00:52;;;;;;;13.13;11.88;;;;;;;;;;5019784;28;20509;-73
2023/09/07 00:03:17;;;;;;;13.35;12.05;;;;;;;;;;5018855;28;20076;-73
2023/09/07 00:05:43;;;;;;;14.35;12.95;;;;;;;;;;5014744;28;20055;-73
2023/09/07 00:08:08;;;;;;;14.77;12.20;;;;;;;;;;5019861;28;20045;-73
2023/09/07 00:10:37;;;;;;;13.63;12.35;;;;;;;;;;5018165;28;20064;-73
2023/09/07 00:13:03;;;;;;;17.35;12.20;;;;;;;;;;5020484;28;20490;-73
2023/09/07 00:15:36;;;;;;;14.65;12.60;;;;;;;;;;4994118;28;20125;-76
2023/09/07 00:18:01;;;;;;;13.40;12.15;;;;;;;;;;4994795;28;20057;-73
2023/09/07 00:20:27;;;;;;;13.35;12.07;;;;;;;;;;4992735;28;20061;-73
2023/09/07 00:22:52;;;;;;;13.85;12.48;;;;;;;;;;4994685;28;20034;-73
2023/09/07 00:25:20;;;;;;;14.02;11.77;;;;;;;;;;4990760;28;20049;-73
2023/09/07 00:27:45;;;;;;;13.55;12.25;;;;;;;;;;5002154;28;20113;-73
2023/09/07 00:30:11;;;;;;;12.65;11.52;;;;;;;;;;5001064;28;20493;-74
2023/09/07 00:32:38;;;;;;;13.15;11.95;;;;;;;;;;5011180;28;20034;-73
2023/09/07 00:35:05;;;;;;;15.32;12.23;;;;;;;;;;5009410;28;20046;-73
2023/09/07 00:37:31;;;;;;;16.67;12.50;;;;;;;;;;5000706;28;20375;-74
2023/09/07 00:39:57;;;;;;;13.40;12.07;;;;;;;;;;5004009;28;20041;-73
2023/09/07 00:42:22;;;;;;;14.30;12.90;;;;;;;;;;5008280;28;20034;-73
2023/09/07 00:44:48;;;;;;;14.05;12.02;;;;;;;;;;4996720;28;20061;-73
2023/09/07 00:47:15;;;;;;;14.18;12.88;;;;;;;;;;4990655;28;20109;-73
2023/09/07 00:49:41;;;;;;;14.10;12.75;;;;;;;;;;5018147;28;20037;-76
2023/09/07 00:52:08;;;;;;;13.60;12.40;;;;;;;;;;4992393;28;20818;-73
2023/09/07 00:54:34;;;;;;;14.38;13.07;;;;;;;;;;5011387;28;20038;-74
2023/09/07 00:57:00;;;;;;;14.48;13.00;;;;;;;;;;4992551;28;20035;-76
2023/09/07 00:59:27;;;;;;;14.15;12.40;;;;;;;;;;4999619;28;20038;-76
2023/09/07 01:01:52;;;;;;;14.00;12.70;;;;;;;;;;5006785;28;20045;-73
2023/09/07 01:04:19;;;;;;;13.82;12.55;;;;;;;;;;5006045;28;20038;-73
2023/09/07 01:06:57;;;;;;;14.40;12.90;;;;;;;;;;5011098;28;20034;-73
2023/09/07 01:09:26;;;;;;;14.68;13.20;;;;;;;;;;5001662;28;20038;-73
2023/09/07 01:11:52;;;;;;;14.43;12.93;;;;;;;;;;5001867;28;20065;-73
2023/09/07 01:14:18;;;;;;;15.13;13.73;;;;;;;;;;5000730;28;20533;-73
2023/09/07 01:16:44;;;;;;;14.88;13.38;;;;;;;;;;4984413;28;20034;-73
2023/09/07 01:19:10;;;;;;;14.73;13.18;;;;;;;;;;4991718;28;20474;-73
2023/09/07 01:21:37;;;;;;;14.23;12.70;;;;;;;;;;5006918;28;20705;-73
2023/09/07 01:24:06;;;;;;;15.43;13.93;;;;;;;;;;4982646;28;20061;-73
2023/09/07 01:26:31;;;;;;;14.10;12.80;;;;;;;;;;5015963;28;20549;-75
2023/09/07 01:28:57;;;;;;;14.13;12.10;;;;;;;;;;5001218;28;20520;-76
2023/09/07 01:31:23;;;;;;;14.52;13.23;;;;;;;;;;5016805;28;20564;-76
2023/09/07 01:33:48;;;;;;;15.20;13.07;;;;;;;;;;4998289;28;20049;-75
2023/09/07 01:36:14;;;;;;;14.35;12.88;;;;;;;;;;4997851;28;20113;-73
2023/09/07 01:38:40;;;;;;;13.65;12.35;;;;;;;;;;5005288;28;20034;-73
2023/09/07 01:41:06;;;;;;;14.00;12.38;;;;;;;;;;5001116;28;20072;-74
2023/09/07 01:43:31;;;;;;;13.65;12.40;;;;;;;;;;5002840;28;20037;-73
2023/09/07 01:45:57;;;;;;;13.93;12.55;;;;;;;;;;5009080;28;20046;-74
2023/09/07 01:48:23;;;;;;;13.25;12.07;;;;;;;;;;5000498;28;20490;-74
2023/09/07 01:50:53;;;;;;;14.93;13.45;;;;;;;;;;5004237;28;20038;-73
2023/09/07 01:53:20;;;;;;;14.57;13.07;;;;;;;;;;5006493;28;20030;-74
2023/09/07 01:55:47;;;;;;;14.95;13.52;;;;;;;;;;5018350;28;20498;-74
2023/09/07 01:58:13;;;;;;;15.05;13.07;;;;;;;;;;4999507;28;20065;-74
2023/09/07 02:00:39;;;;;;;15.10;13.43;;;;;;;;;;5016287;28;20042;-73
2023/09/07 02:03:05;;;;;;;13.73;12.52;;;;;;;;;;4999927;28;20037;-74
2023/09/07 02:05:34;;;;;;;15.45;14.02;;;;;;;;;;4991362;28;20038;-74
2023/09/07 02:08:00;;;;;;;13.88;12.65;;;;;;;;;;5000712;28;20033;-73
2023/09/07 02:10:25;;;;;;;15.07;13.52;;;;;;;;;;4994697;28;20044;-73
2023/09/07 02:12:51;;;;;;;14.52;13.13;;;;;;;;;;5004675;28;20136;-73
2023/09/07 02:15:17;;;;;;;13.43;12.32;;;;;;;;;;4996259;28;20050;-73
2023/09/07 02:17:44;;;;;;;14.60;13.30;;;;;;;;;;4985137;28;20359;-73
2023/09/07 02:20:11;;;;;;;13.50;12.15;;;;;;;;;;5009417;28;20508;-74
2023/09/07 02:22:38;;;;;;;14.38;13.10;;;;;;;;;;4992664;28;20133;-74
2023/09/07 02:25:05;;;;;;;14.55;12.50;;;;;;;;;;4995929;28;21031;-73
2023/09/07 02:27:35;;;;;;;13.20;12.02;;;;;;;;;;5008749;28;20092;-74
2023/09/07 02:30:02;;;;;;;;;;;;;;;;;;5000948;28;20029;-74
2023/09/07 02:32:28;;;;;;;13.05;11.90;;;;;;;;;;4997677;28;19926;-74
2023/09/07 02:34:54;;;;;;;12.90;11.80;;;;;;;;;;5003787;28;20436;-74
2023/09/07 02:37:19;;;;;;;13.65;12.30;;;;;;;;;;5002217;28;20026;-73
2023/09/07 02:39:45;;;;;;;13.10;12.00;;;;;;;;;;4997050;28;20052;-73
2023/09/07 02:42:11;;;;;;;13.57;12.18;;;;;;;;;;4988306;28;20041;-74
2023/09/07 02:44:38;;;;;;;16.05;13.15;;;;;;;;;;4998675;28;20095;-74
2023/09/07 02:47:04;;;;;;;13.95;12.52;;;;;;;;;;5005207;28;20489;-74
2023/09/07 02:49:29;;;;;;;14.85;13.20;;;;;;;;;;5019027;28;20038;-74
2023/09/07 02:51:55;;;;;;;13.80;12.40;;;;;;;;;;5013218;28;20037;-74
2023/09/07 02:54:20;;;;;;;15.00;13.55;;;;;;;;;;5015261;28;20034;-74
2023/09/07 02:56:46;;;;;;;14.20;12.90;;;;;;;;;;5006681;28;20056;-75
2023/09/07 02:59:12;;;;;;;14.43;12.88;;;;;;;;;;5022083;28;20030;-74
2023/09/07 03:01:39;;;;;;;12.77;11.75;;;;;;;;;;5015515;28;20092;-74
2023/09/07 03:04:05;;;;;;;13.75;12.52;;;;;;;;;;5004110;28;20162;-74
2023/09/07 03:06:31;;;;;;;15.15;13.65;;;;;;;;;;5013139;28;20117;-74
2023/09/07 03:08:57;;;;;;;14.73;13.27;;;;;;;;;;5003722;28;20666;-74
2023/09/07 03:11:23;;;;;;;15.20;13.82;;;;;;;;;;5014601;28;20109;-74
2023/09/07 03:13:49;;;;;;;17.70;14.93;;;;;;;;;;4989102;28;20045;-74
2023/09/07 03:16:15;;;;;;;15.13;13.60;;;;;;;;;;4994659;28;20030;-74
2023/09/07 03:18:40;;;;;;;15.68;13.27;;;;;;;;;;5022179;28;20037;-74
2023/09/07 03:21:07;;;;;;;15.25;13.85;;;;;;;;;;5003327;28;20041;-74
2023/09/07 03:23:33;;;;;;;15.80;14.13;;;;;;;;;;5013650;28;20030;-74
2023/09/07 03:25:59;;;;;;;16.17;14.15;;;;;;;;;;5004441;28;20034;-74
2023/09/07 03:28:26;;;;;;;15.73;14.15;;;;;;;;;;4998260;28;20038;-74
2023/09/07 03:30:53;;;;;;;15.85;14.32;;;;;;;;;;5004318;28;20032;-74
2023/09/07 03:33:19;;;;;;;17.08;15.10;;;;;;;;;;5016714;28;20092;-74
2023/09/07 03:35:45;;;;;;;15.80;14.20;;;;;;;;;;5014725;28;20437;-74
2023/09/07 03:38:10;;;;;;;17.17;15.38;;;;;;;;;;5019665;28;20030;-74
2023/09/07 03:40:36;;;;;;;15.75;14.30;;;;;;;;;;4997326;28;20045;-74
2023/09/07 03:43:03;;;;;;;15.95;14.43;;;;;;;;;;4994356;28;20068;-74
2023/09/07 03:45:30;;;;;;;15.55;13.95;;;;;;;;;;5002636;28;20038;-74
2023/09/07 03:47:56;;;;;;;14.32;13.13;;;;;;;;;;5000041;28;20045;-74
2023/09/07 03:50:22;;;;;;;18.13;13.27;;;;;;;;;;5019457;28;20042;-74
2023/09/07 03:52:48;;;;;;;15.02;13.43;;;;;;;;;;5010180;28;20231;-74
2023/09/07 03:55:14;;;;;;;16.60;13.05;;;;;;;;;;5013244;28;20116;-74
2023/09/07 03:57:39;;;;;;;14.32;12.98;;;;;;;;;;5000257;28;20034;-74
2023/09/07 04:00:08;;;;;;;14.35;13.05;;;;;;;;;;5000129;28;20042;-74
2023/09/07 04:02:38;;;;;;;15.00;13.45;;;;;;;;;;4991043;28;20152;-74
2023/09/07 04:05:05;;;;;;;17.60;14.30;;;;;;;;;;5014370;28;20100;-75
2023/09/07 04:07:31;;;;;;;13.73;12.43;;;;;;;;;;5002057;28;20045;-74
2023/09/07 04:09:57;;;;;;;15.48;12.93;;;;;;;;;;4994099;28;20060;-74
2023/09/07 04:12:23;;;;;;;15.10;13.20;;;;;;;;;;5006682;28;20652;-74
2023/09/07 04:14:48;;;;;;;14.60;12.98;;;;;;;;;;4994978;28;20521;-73
2023/09/07 04:17:14;;;;;;;13.80;12.48;;;;;;;;;;5019428;28;20044;-74
2023/09/07 04:19:40;;;;;;;14.23;13.02;;;;;;;;;;5020288;28;20057;-74
2023/09/07 04:22:06;;;;;;;14.40;13.00;;;;;;;;;;5000946;28;20068;-75
2023/09/07 04:24:32;;;;;;;16.70;13.70;;;;;;;;;;5018754;28;20034;-74
2023/09/07 04:27:00;;;;;;;14.77;13.50;;;;;;;;;;5015271;28;20061;-74
2023/09/07 04:29:27;;;;;;;15.20;13.60;;;;;;;;;;5011348;28;20226;-74
2023/09/07 04:31:52;;;;;;;15.52;13.95;;;;;;;;;;5001073;28;20045;-74
2023/09/07 04:34:18;;;;;;;15.07;13.77;;;;;;;;;;5004862;28;20037;-74
2023/09/07 04:36:44;;;;;;;16.83;13.60;;;;;;;;;;5017059;28;20085;-74
2023/09/07 04:39:10;;;;;;;15.27;13.93;;;;;;;;;;5021044;28;20083;-74
2023/09/07 04:41:36;;;;;;;21.73;14.10;;;;;;;;;;5001025;28;20719;-74
2023/09/07 04:44:01;;;;;;;18.23;14.35;;;;;;;;;;5017026;28;20029;-74
2023/09/07 04:46:27;;;;;;;15.18;13.88;;;;;;;;;;4995460;28;20033;-74
2023/09/07 04:48:53;;;;;;;15.27;13.70;;;;;;;;;;5012805;28;20036;-74
2023/09/07 04:51:20;;;;;;;15.93;14.30;;;;;;;;;;5003439;28;20409;-74
2023/09/07 04:53:46;;;;;;;15.55;13.95;;;;;;;;;;5003482;28;20038;-74
2023/09/07 04:56:11;;;;;;;15.35;13.77;;;;;;;;;;4999745;28;20497;-74
2023/09/07 04:58:38;;;;;;;15.55;13.95;;;;;;;;;;5000732;28;20379;-74
2023/09/07 05:01:05;;;;;;;16.55;14.98;;;;;;;;;;5020747;28;20525;-74
2023/09/07 05:03:31;;;;;;;16.42;14.80;;;;;;;;;;5001075;28;20090;-74
2023/09/07 05:05:57;;;;;;;15.93;14.15;;;;;;;;;;5013831;28;20076;-77
2023/09/07 05:08:24;;;;;;;15.93;13.93;;;;;;;;;;5003691;28;20478;-77
2023/09/07 05:11:01;;;;;;;15.40;13.90;;;;;;;;;;5016589;28;20069;-75
2023/09/07 05:13:27;;;;;;;17.80;15.05;;;;;;;;;;5002258;28;20029;-74
2023/09/07 05:15:55;;;;;;;16.83;15.32;;;;;;;;;;5002305;28;20079;-74
2023/09/07 05:18:21;;;;;;;21.27;15.38;;;;;;;;;;5003532;28;20045;-74
2023/09/07 05:20:53;;;;;;;19.25;15.13;;;;;;;;;;4999800;28;20033;-74
2023/09/07 05:23:21;;;;;;;16.63;15.02;;;;;;;;;;5001982;28;20041;-74
2023/09/07 05:25:48;;;;;;;17.33;15.52;;;;;;;;;;5001896;28;20953;-74
2023/09/07 05:28:16;;;;;;;17.00;15.30;;;;;;;;;;4996475;28;20049;-74
2023/09/07 05:30:42;;;;;;;17.38;15.65;;;;;;;;;;5001978;28;20044;-74
2023/09/07 05:33:14;;;;;;;17.05;15.25;;;;;;;;;;4982610;28;20033;-73
2023/09/07 05:35:41;;;;;;;17.83;16.02;;;;;;;;;;5017432;28;20548;-73
2023/09/07 05:38:08;;;;;;;17.90;16.00;;;;;;;;;;4997539;28;20574;-74
2023/09/07 05:40:38;;;;;;;17.40;15.45;;;;;;;;;;5014731;28;20502;-74
2023/09/07 05:43:04;;;;;;;16.23;14.45;;;;;;;;;;5017044;28;20058;-74
2023/09/07 05:45:36;;;;;;;17.02;15.32;;;;;;;;;;5015576;28;20034;-74
2023/09/07 05:48:03;;;;;;;17.40;15.60;;;;;;;;;;5017075;28;20535;-74
2023/09/07 05:50:29;;;;;;;15.82;14.23;;;;;;;;;;5017672;28;20709;-73
2023/09/07 05:52:55;;;;;;;16.42;14.82;;;;;;;;;;5016312;28;20066;-73
2023/09/07 05:55:20;;;;;;;15.32;14.02;;;;;;;;;;5016701;28;20064;-73
2023/09/07 05:57:46;;;;;;;17.55;14.52;;;;;;;;;;4998702;28;20076;-73
2023/09/07 06:00:13;;;;;;;15.60;14.20;;;;;;;;;;5002467;28;20028;-74
2023/09/07 06:02:43;;;;;;;15.95;14.45;;;;;;;;;;4995861;28;20030;-74
2023/09/07 06:05:10;;;;;;;16.03;14.53;;;;;;;;;;4995902;28;20034;-73
2023/09/07 06:07:37;;;;;;;16.45;14.82;;;;;;;;;;5018053;28;20034;-73
2023/09/07 06:10:05;;;;;;;14.82;13.43;;;;;;;;;;5020116;28;20375;-73
2023/09/07 06:12:32;;;;;;;15.35;13.95;;;;;;;;;;5018775;28;20030;-73
2023/09/07 06:14:58;;;;;;;15.75;14.25;;;;;;;;;;5012378;28;20605;-74
2023/09/07 06:17:23;;;;;;;16.23;14.52;;;;;;;;;;4994157;28;20189;-74
2023/09/07 06:19:49;;;;;;;14.85;13.48;;;;;;;;;;5005390;28;20044;-74
2023/09/07 06:22:14;;;;;;;15.10;13.75;;;;;;;;;;5004401;28;20259;-74
2023/09/07 06:24:40;;;;;;;16.35;14.75;;;;;;;;;;5005665;28;20186;-73
2023/09/07 06:27:06;;;;;;;14.88;13.48;;;;;;;;;;5005408;28;20715;-73
2023/09/07 06:29:32;;;;;;;14.77;13.52;;;;;;;;;;5022363;28;20049;-74
2023/09/07 06:31:58;;;;;;;14.50;13.30;;;;;;;;;;5003215;28;20041;-74
2023/09/07 06:34:24;;;;;;;14.85;13.45;;;;;;;;;;5020392;28;20045;-74
2023/09/07 06:36:49;;;;;;;13.65;12.35;;;;;;;;;;5001504;28;20029;-74
2023/09/07 06:39:18;;;;;;;14.55;13.00;;;;;;;;;;5021529;28;20112;-74
2023/09/07 06:41:46;;;;;;;14.80;13.50;;;;;;;;;;5020029;28;20029;-74
2023/09/07 06:44:12;;;;;;;15.00;13.35;;;;;;;;;;5005478;28;20048;-74
2023/09/07 06:46:38;;;;;;;14.30;12.93;;;;;;;;;;5021970;28;20600;-74
2023/09/07 06:49:04;;;;;;;14.02;12.70;;;;;;;;;;5018753;28;20064;-74
2023/09/07 06:51:32;;;;;;;14.18;12.82;;;;;;;;;;5014246;28;20112;-74
2023/09/07 06:53:58;;;;;;;14.35;12.45;;;;;;;;;;5004371;28;20070;-74
2023/09/07 06:56:26;;;;;;;12.18;11.27;;;;;;;;;;5004876;28;20072;-73
2023/09/07 06:58:52;;;;;;;12.35;11.35;;;;;;;;;;5004441;28;20129;-74
2023/09/07 07:01:19;;;;;;;13.43;11.45;;;;;;;;;;5003792;28;20088;-74
2023/09/07 07:03:45;;;;;;;12.25;11.18;;;;;;;;;;5021468;28;20600;-74
2023/09/07 07:06:10;;;;;;;11.85;10.85;;;;;;;;;;5001103;28;20042;-74
2023/09/07 07:08:36;;;;;;;13.13;10.75;;;;;;;;;;5021679;28;20109;-74
2023/09/07 07:11:02;;;;;;;11.77;10.88;;;;;;;;;;5003889;28;21508;-74
2023/09/07 07:13:27;;;;;;;12.40;11.30;;;;;;;;;;5018820;28;20034;-74
2023/09/07 07:15:53;;;;;;;10.95;10.10;;;;;;;;;;5004909;28;20142;-74
2023/09/07 07:18:18;;;;;;;11.85;10.77;;;;;;;;;;5006583;28;20033;-74
2023/09/07 07:20:44;;;;;;;11.55;10.63;;;;;;;;;;5003477;28;20044;-74
2023/09/07 07:23:12;;;;;;;11.40;10.40;;;;;;;;;;5001710;28;20030;-74
2023/09/07 07:25:38;;;;;;;11.50;10.63;;;;;;;;;;5004548;28;20191;-74
2023/09/07 07:28:06;;;;;;;11.35;10.55;;;;;;;;;;5017920;28;20034;-74
2023/09/07 07:30:33;;;;;;;11.18;10.18;;;;;;;;;;5004275;28;20030;-74
2023/09/07 07:32:59;;;;;;;11.85;10.85;;;;;;;;;;5018569;28;20045;-74
2023/09/07 07:35:25;;;;;;;14.05;10.40;;;;;;;;;;5015982;28;20040;-74
2023/09/07 07:37:51;;;;;;;11.25;10.32;;;;;;;;;;4996316;28;20042;-74
2023/09/07 07:40:18;;;;;;;11.15;10.32;;;;;;;;;;5004886;28;20034;-74
2023/09/07 07:42:46;;;;;;;11.05;9.98;;;;;;;;;;5003755;28;20045;-74
2023/09/07 07:45:12;;;;;;;10.82;9.82;;;;;;;;;;5020669;28;20040;-74
2023/09/07 07:47:42;;;;;;;10.48;9.68;;;;;;;;;;5004539;28;20053;-74
2023/09/07 07:50:08;;;;;;;14.57;9.95;;;;;;;;;;5004425;28;20041;-75
2023/09/07 07:52:34;;;;;;;10.82;9.73;;;;;;;;;;5002794;28;20034;-74
2023/09/07 07:55:01;;;;;;;11.60;10.60;;;;;;;;;;5005469;28;20044;-74
2023/09/07 07:57:26;;;;;;;10.82;9.60;;;;;;;;;;5008902;28;20041;-74
2023/09/07 07:59:52;;;;;;;10.48;9.68;;;;;;;;;;5003613;28;20041;-74
2023/09/07 08:02:18;;;;;;;11.43;10.05;;;;;;;;;;5001804;28;20029;-74
2023/09/07 08:04:44;;;;;;;13.63;9.30;;;;;;;;;;5003427;28;20030;-74
2023/09/07 08:07:09;;;;;;;10.80;9.90;;;;;;;;;;5014965;28;20050;-74
2023/09/07 08:09:37;;;;;;;10.65;9.65;;;;;;;;;;5003302;28;20030;-74
2023/09/07 08:12:05;;;;;;;12.50;9.32;;;;;;;;;;5017795;28;20100;-74
2023/09/07 08:14:32;;;;;;;10.23;9.38;;;;;;;;;;5003929;28;20145;-74
2023/09/07 08:17:00;;;;;;;10.48;9.60;;;;;;;;;;5001467;28;20121;-74
2023/09/07 08:19:27;;;;;;;13.48;9.77;;;;;;;;;;5005573;28;20161;-74
2023/09/07 08:21:53;;;;;;;10.07;9.27;;;;;;;;;;5019499;28;20037;-73
2023/09/07 08:24:19;;;;;;;10.13;9.18;;;;;;;;;;5003746;28;20109;-74
2023/09/07 08:26:45;;;;;;;10.63;9.70;;;;;;;;;;5003016;28;20045;-74
2023/09/07 08:29:10;;;;;;;10.60;9.60;;;;;;;;;;5000092;28;20037;-74
2023/09/07 08:31:38;;;;;;;10.57;9.68;;;;;;;;;;4995138;28;20034;-74
2023/09/07 08:34:06;;;;;;;11.13;10.10;;;;;;;;;;5000900;28;20041;-74
2023/09/07 08:36:33;;;;;;;10.40;9.40;;;;;;;;;;4995824;28;20122;-74
2023/09/07 08:39:07;;;;;;;10.33;9.43;;;;;;;;;;5004283;28;20100;-74
2023/09/07 08:41:43;;;;;;;11.77;9.50;;;;;;;;;;5002285;28;20478;-74
2023/09/07 08:44:15;;;;;;;10.63;9.70;;;;;;;;;;4999589;28;20039;-74
2023/09/07 08:46:42;;;;;;;10.77;9.70;;;;;;;;;;5004414;28;20124;-74
2023/09/07 08:49:09;;;;;;;11.38;9.15;;;;;;;;;;5006678;28;20132;-74
2023/09/07 08:51:37;;;;;;;9.98;8.90;;;;;;;;;;5002269;28;20553;-75
2023/09/07 08:54:04;;;;;;;10.02;9.23;;;;;;;;;;5003717;28;20069;-74
2023/09/07 08:56:29;;;;;;;10.95;10.02;;;;;;;;;;5002890;28;20084;-74
2023/09/07 08:58:55;;;;;;;10.00;9.20;;;;;;;;;;5002224;28;20042;-74
2023/09/07 09:01:21;;;;;;;10.48;9.57;;;;;;;;;;5000682;28;20058;-74
2023/09/07 09:03:48;;;;;;;11.65;10.55;;;;;;;;;;5001153;28;20030;-74
2023/09/07 09:06:16;;;;;;;10.88;9.80;;;;;;;;;;5002983;28;20116;-74
2023/09/07 09:08:48;;;;;;;13.30;10.40;;;;;;;;;;5001442;28;20025;-74
2023/09/07 09:11:15;;;;;;;10.27;9.48;;;;;;;;;;4995693;28;20042;-74
2023/09/07 09:13:41;;;;;;;11.50;9.73;;;;;;;;;;5003554;28;20504;-74
2023/09/07 09:16:07;;;;;;;10.25;9.38;;;;;;;;;;5001007;28;20034;-74
2023/09/07 09:18:32;;;;;;;10.55;9.55;;;;;;;;;;5013780;28;20037;-74
2023/09/07 09:21:01;;;;;;;10.90;9.63;;;;;;;;;;5003620;28;20084;-73
2023/09/07 09:23:36;;;;;;;9.52;8.80;;;;;;;;;;5003266;28;20034;-74
2023/09/07 09:26:06;;;;;;;10.68;9.77;;;;;;;;;;4997618;28;20132;-74
2023/09/07 09:28:32;;;;;;;10.35;9.27;;;;;;;;;;4994086;28;20512;-75
2023/09/07 09:30:59;;;;;;;10.18;9.13;;;;;;;;;;5001304;28;20088;-74
2023/09/07 09:33:26;;;;;;;10.18;9.30;;;;;;;;;;5002347;28;20044;-74
2023/09/07 09:35:55;;;;;;;11.55;10.02;;;;;;;;;;5001662;28;20082;-74
2023/09/07 09:38:20;;;;;;;9.88;8.95;;;;;;;;;;5003727;28;20541;-74
2023/09/07 09:40:46;;;;;;;11.30;10.15;;;;;;;;;;4999606;28;20165;-74
2023/09/07 09:43:13;;;;;;;11.30;10.15;;;;;;;;;;5001928;28;20029;-74
2023/09/07 09:45:39;;;;;;;9.90;9.02;;;;;;;;;;5000281;28;20410;-74
2023/09/07 09:48:05;;;;;;;10.63;9.60;;;;;;;;;;5007528;28;20061;-75
2023/09/07 09:50:32;;;;;;;10.13;9.40;;;;;;;;;;5019793;28;20045;-74
2023/09/07 09:52:58;;;;;;;9.65;8.90;;;;;;;;;;5005361;28;20056;-74
2023/09/07 09:55:24;;;;;;;9.50;8.70;;;;;;;;;;5003195;28;20034;-74
2023/09/07 09:57:50;;;;;;;10.52;9.50;;;;;;;;;;5000348;28;20499;-74
2023/09/07 10:02:44;;;;;;;9.38;8.68;;;;;;;;;;5004838;28;20055;-74
2023/09/07 10:05:11;;;;;;;9.80;9.00;;;;;;;;;;5007346;28;20030;-74
2023/09/07 10:07:44;;;;;;;11.45;9.80;;;;;;;;;;5001871;28;20032;-74
2023/09/07 10:10:13;;;;;;;10.10;9.40;;;;;;;;;;5020942;28;20052;-74
2023/09/07 10:12:42;;;;;;;;;;;;;;;;;;4999462;28;20121;-74
2023/09/07 10:15:20;;;;;;;10.10;9.15;;;;;;;;;;5002080;28;20082;-74
2023/09/07 10:17:49;;;;;;;9.55;8.65;;;;;;;;;;4998694;28;20030;-74
2023/09/07 10:20:17;;;;;;;9.70;8.82;;;;;;;;;;5000040;28;20030;-74
2023/09/07 10:22:42;;;;;;;10.32;9.30;;;;;;;;;;5006332;28;20033;-74
2023/09/07 10:25:19;;;;;;;9.73;8.90;;;;;;;;;;5006000;28;20041;-75
2023/09/07 10:27:44;;;;;;;9.23;8.43;;;;;;;;;;5004743;28;20030;-74
2023/09/07 10:30:18;;;;;;;9.35;8.55;;;;;;;;;;5000414;28;20486;-74
2023/09/07 10:32:44;;;;;;;9.07;8.20;;;;;;;;;;5021592;28;20042;-74
2023/09/07 10:35:21;;;;;;;9.07;8.43;;;;;;;;;;4998531;28;20053;-74
2023/09/07 10:37:47;;;;;;;9.20;8.43;;;;;;;;;;5001997;28;20038;-74
2023/09/07 10:40:19;;;;;;;9.73;8.40;;;;;;;;;;4998719;28;20034;-75
2023/09/07 10:42:44;;;;;;;9.50;8.60;;;;;;;;;;5001675;28;20041;-74
2023/09/07 10:45:12;;;;;;;9.95;8.77;;;;;;;;;;4998977;28;20040;-74
2023/09/07 10:47:48;;;;;;;9.27;8.57;;;;;;;;;;5005894;28;20036;-74
2023/09/07 10:50:14;;;;;;;8.70;7.90;;;;;;;;;;4992278;28;20433;-74
2023/09/07 10:52:41;;;;;;;9.63;8.05;;;;;;;;;;5003983;28;20524;-74
2023/09/07 10:55:10;;;;;;;10.30;8.63;;;;;;;;;;4997815;28;20042;-74
2023/09/07 10:57:43;;;;;;;9.27;8.35;;;;;;;;;;5002288;28;20065;-74
2023/09/07 11:00:10;;;;;;;9.35;8.55;;;;;;;;;;5000065;28;20057;-74
2023/09/07 11:02:40;;;;;;;9.38;8.45;;;;;;;;;;5003497;28;20512;-74
2023/09/07 11:05:06;;;;;;;9.15;8.35;;;;;;;;;;4999946;28;20034;-73
2023/09/07 11:07:32;;;;;;;12.88;8.82;;;;;;;;;;5001577;28;20092;-73
2023/09/07 11:09:58;;;;;;;9.40;8.70;;;;;;;;;;4999731;28;20400;-76
2023/09/07 11:12:24;;;;;;;9.57;8.77;;;;;;;;;;4999574;28;20682;-72
2023/09/07 11:14:51;;;;;;;10.90;8.85;;;;;;;;;;5001687;28;20037;-73
2023/09/07 11:17:17;;;;;;;9.10;8.33;;;;;;;;;;5000929;28;20549;-73
2023/09/07 11:19:43;;;;;;;9.70;8.88;;;;;;;;;;5007871;28;20035;-73
2023/09/07 11:22:13;;;;;;;9.60;8.90;;;;;;;;;;5004880;28;20040;-73
2023/09/07 11:24:39;;;;;;;10.05;9.07;;;;;;;;;;5005844;28;20028;-72
2023/09/07 11:27:05;;;;;;;9.90;9.00;;;;;;;;;;4999384;28;20360;-73
2023/09/07 11:29:32;;;;;;;9.40;8.60;;;;;;;;;;5001861;28;20112;-73
2023/09/07 11:32:07;;;;;;;102.97;15.27;;;;;;;;;;5000648;28;20418;-73
2023/09/07 11:34:33;;;;;;;12.27;9.30;;;;;;;;;;5001669;28;20042;-73
2023/09/07 11:36:58;;;;;;;16.70;9.50;;;;;;;;;;5004065;28;20410;-73
2023/09/07 11:39:24;;;;;;;9.43;8.77;;;;;;;;;;5003810;28;20430;-73
2023/09/07 11:41:49;;;;;;;9.48;8.88;;;;;;;;;;5019332;28;20501;-73
2023/09/07 11:44:15;;;;;;;10.05;8.95;;;;;;;;;;5017175;28;20029;-73
2023/09/07 11:46:40;;;;;;;9.70;8.80;;;;;;;;;;5004742;28;20037;-73
2023/09/07 11:49:06;;;;;;;10.35;9.57;;;;;;;;;;4998711;28;20083;-73
2023/09/07 11:51:32;;;;;;;10.18;9.27;;;;;;;;;;5001629;28;20113;-73
2023/09/07 11:53:58;;;;;;;10.20;9.35;;;;;;;;;;5001722;28;20468;-73
2023/09/07 11:56:24;;;;;;;10.38;9.30;;;;;;;;;;4999487;28;20235;-73
2023/09/07 11:58:50;;;;;;;10.45;9.40;;;;;;;;;;4996425;28;20573;-73
2023/09/07 12:01:16;;;;;;;10.60;9.80;;;;;;;;;;5003387;28;20098;-72
2023/09/07 12:03:43;;;;;;;10.52;9.52;;;;;;;;;;4999063;28;20034;-73
2023/09/07 12:06:09;;;;;;;10.38;9.52;;;;;;;;;;4999245;28;20087;-73
2023/09/07 12:08:35;;;;;;;10.48;9.50;;;;;;;;;;5005865;28;20047;-73
2023/09/07 12:11:01;;;;;;;10.35;9.45;;;;;;;;;;5000727;28;20049;-73
2023/09/07 12:13:26;;;;;;;10.18;9.48;;;;;;;;;;5004771;28;20038;-73
2023/09/07 12:15:52;;;;;;;14.20;9.80;;;;;;;;;;4997441;28;20537;-73
2023/09/07 12:18:17;;;;;;;10.57;9.57;;;;;;;;;;4996958;28;20046;-73
2023/09/07 12:20:44;;;;;;;12.52;9.60;;;;;;;;;;5002550;28;20125;-73
2023/09/07 12:23:10;;;;;;;10.35;9.52;;;;;;;;;;4999703;28;20038;-73
2023/09/07 12:25:36;;;;;;;10.10;9.30;;;;;;;;;;5000624;28;20085;-73
2023/09/07 12:28:03;;;;;;;10.23;9.52;;;;;;;;;;4995632;28;20228;-73
2023/09/07 12:30:28;;;;;;;10.98;9.90;;;;;;;;;;4996205;28;20068;-73
2023/09/07 12:32:54;;;;;;;10.98;9.95;;;;;;;;;;5002181;28;20041;-74
2023/09/07 12:35:20;;;;;;;10.70;9.90;;;;;;;;;;4997869;28;20038;-74
2023/09/07 12:37:46;;;;;;;10.50;9.80;;;;;;;;;;5006351;28;20045;-74
2023/09/07 12:40:15;;;;;;;10.85;10.02;;;;;;;;;;5004208;28;20041;-73
2023/09/07 12:42:41;;;;;;;10.98;9.98;;;;;;;;;;5002002;28;20033;-72
2023/09/07 12:45:11;;;;;;;10.93;10.13;;;;;;;;;;4994228;28;20028;-73
2023/09/07 12:47:38;;;;;;;11.18;10.18;;;;;;;;;;5001398;28;20042;-73
2023/09/07 12:50:04;;;;;;;11.00;10.20;;;;;;;;;;5003068;28;20085;-73
2023/09/07 12:52:31;;;;;;;10.98;10.18;;;;;;;;;;5001593;28;20042;-73
2023/09/07 12:54:56;;;;;;;11.60;10.50;;;;;;;;;;5003960;28;20113;-73
2023/09/07 12:57:22;;;;;;;10.30;9.60;;;;;;;;;;5000432;28;20405;-73
2023/09/07 12:59:49;;;;;;;11.10;10.10;;;;;;;;;;5004093;28;20034;-73
2023/09/07 13:02:14;;;;;;;11.10;10.20;;;;;;;;;;5000150;28;20045;-74
2023/09/07 13:04:40;;;;;;;10.48;9.60;;;;;;;;;;5002475;28;20034;-73
2023/09/07 13:07:05;;;;;;;10.38;9.60;;;;;;;;;;5004352;28;20037;-73
2023/09/07 13:09:31;;;;;;;10.20;9.50;;;;;;;;;;5003824;28;20112;-73
2023/09/07 13:11:57;;;;;;;10.88;9.98;;;;;;;;;;5003563;28;20061;-73
2023/09/07 13:14:22;;;;;;;10.63;9.82;;;;;;;;;;5014570;28;20522;-73
2023/09/07 13:16:50;;;;;;;10.95;10.05;;;;;;;;;;5004802;28;20441;-73
2023/09/07 13:19:16;;;;;;;11.43;10.05;;;;;;;;;;5002061;28;20056;-73
2023/09/07 13:21:41;;;;;;;10.90;9.93;;;;;;;;;;4999968;28;20342;-73
2023/09/07 13:24:07;;;;;;;11.07;10.13;;;;;;;;;;5001370;28;20095;-74
2023/09/07 13:26:33;;;;;;;10.50;9.70;;;;;;;;;;5001019;28;20189;-74
2023/09/07 13:28:58;;;;;;;10.40;9.60;;;;;;;;;;5002112;28;20033;-73
2023/09/07 13:31:24;;;;;;;10.98;10.05;;;;;;;;;;5000730;28;20046;-74
2023/09/07 13:33:50;;;;;;;10.80;9.80;;;;;;;;;;4999837;28;20073;-74
2023/09/07 13:36:16;;;;;;;10.90;10.10;;;;;;;;;;5002080;28;20080;-74
2023/09/07 13:38:43;;;;;;;10.27;9.57;;;;;;;;;;5005528;28;20046;-74
2023/09/07 13:41:09;;;;;;;11.02;10.20;;;;;;;;;;4999421;28;20034;-74
2023/09/07 13:43:34;;;;;;;10.77;10.07;;;;;;;;;;5003626;28;20029;-74
2023/09/07 13:46:00;;;;;;;10.93;9.98;;;;;;;;;;5002757;28;20336;-74
2023/09/07 13:48:26;;;;;;;10.30;9.45;;;;;;;;;;5002833;28;20037;-74
2023/09/07 13:50:51;;;;;;;10.45;9.65;;;;;;;;;;5012180;28;20053;-73
2023/09/07 13:53:17;;;;;;;10.70;9.80;;;;;;;;;;5002031;28;20053;-74
2023/09/07 13:55:46;;;;;;;10.57;9.63;;;;;;;;;;4994262;28;20037;-74
2023/09/07 13:58:11;;;;;;;10.32;9.43;;;;;;;;;;5003641;28;20138;-74
2023/09/07 14:00:38;;;;;;;10.48;9.77;;;;;;;;;;5003183;28;20037;-74
2023/09/07 14:03:04;;;;;;;10.95;10.00;;;;;;;;;;5016717;28;20121;-73
2023/09/07 14:05:30;;;;;;;10.23;9.60;;;;;;;;;;4999111;28;20046;-74
2023/09/07 14:07:56;;;;;;;10.52;9.63;;;;;;;;;;4998308;28;20042;-74
2023/09/07 14:10:22;;;;;;;10.60;9.80;;;;;;;;;;4997613;28;20433;-74
2023/09/07 14:12:48;;;;;;;10.88;9.98;;;;;;;;;;5002441;28;20048;-74
2023/09/07 14:15:14;;;;;;;10.40;9.55;;;;;;;;;;4995938;28;20029;-74
2023/09/07 14:17:40;;;;;;;9.80;9.20;;;;;;;;;;5001720;28;20096;-75
2023/09/07 14:20:06;;;;;;;10.00;9.30;;;;;;;;;;5001412;28;20422;-75
2023/09/07 14:22:31;;;;;;;10.65;9.95;;;;;;;;;;5004873;28;20033;-73